sensor_id;sensor_type;location;lat;lon;timestamp;temperature;humidity
22813;DHT22;11573;51.334;3.244;2023-06-10T00:00:38;21.00;99.90
22813;DHT22;11573;51.334;3.244;2023-06-10T00:03:05;21.00;99.90
22813;DHT22;11573;51.334;3.244;2023-06-10T00:05:32;21.00;99.90
22813;DHT22;11573;51.334;3.244;2023-06-10T00:07:59;21.00;99.90
22813;DHT22;11573;51.334;3.244;2023-06-10T00:10:26;21.00;99.90
22813;DHT22;11573;51.334;3.244;2023-06-10T00:12:53;20.90;99.90
22813;DHT22;11573;51.334;3.244;2023-06-10T00:15:20;20.90;99.90
22813;DHT22;11573;51.334;3.244;2023-06-10T00:17:47;20.80;99.90
22813;DHT22;11573;51.334;3.244;2023-06-10T00:20:15;20.80;99.90
22813;DHT22;11573;51.334;3.244;2023-06-10T00:22:42;20.70;99.90
22813;DHT22;11573;51.334;3.244;2023-06-10T00:25:12;20.60;99.90
22813;DHT22;11573;51.334;3.244;2023-06-10T00:27:40;20.50;99.90
22813;DHT22;11573;51.334;3.244;2023-06-10T00:30:07;20.40;99.90
22813;DHT22;11573;51.334;3.244;2023-06-10T00:32:35;20.40;99.90
22813;DHT22;11573;51.334;3.244;2023-06-10T00:35:03;20.30;99.90
22813;DHT22;11573;51.334;3.244;2023-06-10T00:37:31;20.20;99.90
22813;DHT22;11573;51.334;3.244;2023-06-10T00:39:59;20.10;99.90
22813;DHT22;11573;51.334;3.244;2023-06-10T00:42:26;20.00;99.90
22813;DHT22;11573;51.334;3.244;2023-06-10T00:44:55;20.00;99.90
22813;DHT22;11573;51.334;3.244;2023-06-10T00:47:22;19.90;99.90
22813;DHT22;11573;51.334;3.244;2023-06-10T00:49:52;19.90;99.90
22813;DHT22;11573;51.334;3.244;2023-06-10T00:52:22;19.80;99.90
22813;DHT22;11573;51.334;3.244;2023-06-10T00:54:51;19.80;99.90
22813;DHT22;11573;51.334;3.244;2023-06-10T00:57:18;19.70;99.90
22813;DHT22;11573;51.334;3.244;2023-06-10T00:59:48;19.70;99.90
22813;DHT22;11573;51.334;3.244;2023-06-10T01:02:16;19.60;99.90
22813;DHT22;11573;51.334;3.244;2023-06-10T01:04:43;19.50;99.90
22813;DHT22;11573;51.334;3.244;2023-06-10T01:07:34;19.50;99.90
22813;DHT22;11573;51.334;3.244;2023-06-10T01:10:17;19.50;99.90
22813;DHT22;11573;51.334;3.244;2023-06-10T01:12:58;19.40;99.90
22813;DHT22;11573;51.334;3.244;2023-06-10T01:15:34;19.50;99.90
22813;DHT22;11573;51.334;3.244;2023-06-10T01:18:09;19.40;99.90
22813;DHT22;11573;51.334;3.244;2023-06-10T01:20:38;19.40;99.90
22813;DHT22;11573;51.334;3.244;2023-06-10T01:23:07;19.30;99.90
22813;DHT22;11573;51.334;3.244;2023-06-10T01:25:38;19.20;99.90
22813;DHT22;11573;51.334;3.244;2023-06-10T01:28:18;19.20;99.90
22813;DHT22;11573;51.334;3.244;2023-06-10T01:31:01;19.10;99.90
22813;DHT22;11573;51.334;3.244;2023-06-10T01:33:35;19.00;99.90
22813;DHT22;11573;51.334;3.244;2023-06-10T01:36:03;19.00;99.90
22813;DHT22;11573;51.334;3.244;2023-06-10T01:38:33;18.80;99.90
22813;DHT22;11573;51.334;3.244;2023-06-10T01:41:03;18.80;99.90
22813;DHT22;11573;51.334;3.244;2023-06-10T01:43:34;18.70;99.90
22813;DHT22;11573;51.334;3.244;2023-06-10T01:46:01;18.70;99.90
22813;DHT22;11573;51.334;3.244;2023-06-10T01:48:29;18.60;99.90
22813;DHT22;11573;51.334;3.244;2023-06-10T01:50:56;18.60;99.90
22813;DHT22;11573;51.334;3.244;2023-06-10T01:53:23;18.50;99.90
22813;DHT22;11573;51.334;3.244;2023-06-10T01:55:50;18.50;99.90
22813;DHT22;11573;51.334;3.244;2023-06-10T01:58:17;18.50;99.90
22813;DHT22;11573;51.334;3.244;2023-06-10T02:00:44;18.50;99.90
22813;DHT22;11573;51.334;3.244;2023-06-10T02:03:11;18.40;99.90
22813;DHT22;11573;51.334;3.244;2023-06-10T02:05:39;18.40;99.90
22813;DHT22;11573;51.334;3.244;2023-06-10T02:08:06;18.30;99.90
22813;DHT22;11573;51.334;3.244;2023-06-10T02:10:33;18.30;99.90
22813;DHT22;11573;51.334;3.244;2023-06-10T02:13:00;18.20;99.90
22813;DHT22;11573;51.334;3.244;2023-06-10T02:15:27;18.20;99.90
22813;DHT22;11573;51.334;3.244;2023-06-10T02:17:54;18.10;99.90
22813;DHT22;11573;51.334;3.244;2023-06-10T02:20:22;18.10;99.90
22813;DHT22;11573;51.334;3.244;2023-06-10T02:22:49;18.00;99.90
22813;DHT22;11573;51.334;3.244;2023-06-10T02:25:16;18.00;99.90
22813;DHT22;11573;51.334;3.244;2023-06-10T02:27:43;18.00;99.90
22813;DHT22;11573;51.334;3.244;2023-06-10T02:30:11;17.90;99.90
22813;DHT22;11573;51.334;3.244;2023-06-10T02:32:38;17.90;99.90
22813;DHT22;11573;51.334;3.244;2023-06-10T02:35:05;17.90;99.90
22813;DHT22;11573;51.334;3.244;2023-06-10T02:37:33;18.00;99.90
22813;DHT22;11573;51.334;3.244;2023-06-10T02:40:00;17.90;99.90
22813;DHT22;11573;51.334;3.244;2023-06-10T02:42:27;17.80;99.90
22813;DHT22;11573;51.334;3.244;2023-06-10T02:44:54;17.80;99.90
22813;DHT22;11573;51.334;3.244;2023-06-10T02:47:32;17.80;99.90
22813;DHT22;11573;51.334;3.244;2023-06-10T02:50:00;17.80;99.90
22813;DHT22;11573;51.334;3.244;2023-06-10T02:52:30;17.70;99.90
22813;DHT22;11573;51.334;3.244;2023-06-10T02:54:58;17.70;99.90
22813;DHT22;11573;51.334;3.244;2023-06-10T02:57:25;17.60;99.90
22813;DHT22;11573;51.334;3.244;2023-06-10T02:59:52;17.60;99.90
22813;DHT22;11573;51.334;3.244;2023-06-10T03:02:20;17.60;99.90
22813;DHT22;11573;51.334;3.244;2023-06-10T03:04:51;17.70;99.90
22813;DHT22;11573;51.334;3.244;2023-06-10T03:07:20;17.60;99.90
22813;DHT22;11573;51.334;3.244;2023-06-10T03:09:49;17.60;99.90
22813;DHT22;11573;51.334;3.244;2023-06-10T03:12:17;17.60;99.90
22813;DHT22;11573;51.334;3.244;2023-06-10T03:14:47;17.60;99.90
22813;DHT22;11573;51.334;3.244;2023-06-10T03:17:15;17.60;99.90
22813;DHT22;11573;51.334;3.244;2023-06-10T03:19:44;17.60;99.90
22813;DHT22;11573;51.334;3.244;2023-06-10T03:22:14;17.60;99.90
22813;DHT22;11573;51.334;3.244;2023-06-10T03:24:48;17.50;99.90
22813;DHT22;11573;51.334;3.244;2023-06-10T03:27:18;17.40;99.90
22813;DHT22;11573;51.334;3.244;2023-06-10T03:29:48;17.40;99.90
22813;DHT22;11573;51.334;3.244;2023-06-10T03:32:16;17.30;99.90
22813;DHT22;11573;51.334;3.244;2023-06-10T03:34:44;17.30;99.90
22813;DHT22;11573;51.334;3.244;2023-06-10T03:37:14;17.30;99.90
22813;DHT22;11573;51.334;3.244;2023-06-10T03:39:44;17.40;99.90
22813;DHT22;11573;51.334;3.244;2023-06-10T03:42:11;17.40;99.90
22813;DHT22;11573;51.334;3.244;2023-06-10T03:44:38;17.30;99.90
22813;DHT22;11573;51.334;3.244;2023-06-10T03:47:05;17.30;99.90
22813;DHT22;11573;51.334;3.244;2023-06-10T03:49:32;17.40;99.90
22813;DHT22;11573;51.334;3.244;2023-06-10T03:52:01;17.50;99.90
22813;DHT22;11573;51.334;3.244;2023-06-10T03:54:28;17.60;99.90
22813;DHT22;11573;51.334;3.244;2023-06-10T03:56:56;17.60;99.90
22813;DHT22;11573;51.334;3.244;2023-06-10T03:59:23;17.60;99.90
22813;DHT22;11573;51.334;3.244;2023-06-10T04:01:50;17.60;99.90
22813;DHT22;11573;51.334;3.244;2023-06-10T04:04:17;17.60;99.90
22813;DHT22;11573;51.334;3.244;2023-06-10T04:06:45;17.70;99.90
22813;DHT22;11573;51.334;3.244;2023-06-10T04:09:14;17.80;99.90
22813;DHT22;11573;51.334;3.244;2023-06-10T04:11:41;17.90;99.90
22813;DHT22;11573;51.334;3.244;2023-06-10T04:14:08;18.00;99.90
22813;DHT22;11573;51.334;3.244;2023-06-10T04:16:36;18.30;99.90
22813;DHT22;11573;51.334;3.244;2023-06-10T04:19:05;18.50;99.90
22813;DHT22;11573;51.334;3.244;2023-06-10T04:21:32;19.10;99.90
22813;DHT22;11573;51.334;3.244;2023-06-10T04:23:59;19.70;99.90
22813;DHT22;11573;51.334;3.244;2023-06-10T04:26:27;20.40;99.90
22813;DHT22;11573;51.334;3.244;2023-06-10T04:28:54;21.10;99.90
22813;DHT22;11573;51.334;3.244;2023-06-10T04:31:22;21.70;99.90
22813;DHT22;11573;51.334;3.244;2023-06-10T04:33:49;22.20;99.90
22813;DHT22;11573;51.334;3.244;2023-06-10T04:36:17;22.50;99.90
22813;DHT22;11573;51.334;3.244;2023-06-10T04:38:44;22.90;99.90
22813;DHT22;11573;51.334;3.244;2023-06-10T04:41:11;23.50;99.90
22813;DHT22;11573;51.334;3.244;2023-06-10T04:43:38;23.70;99.90
22813;DHT22;11573;51.334;3.244;2023-06-10T04:46:06;24.00;99.90
22813;DHT22;11573;51.334;3.244;2023-06-10T04:48:35;24.20;99.90
22813;DHT22;11573;51.334;3.244;2023-06-10T04:51:03;23.90;99.90
22813;DHT22;11573;51.334;3.244;2023-06-10T04:53:32;24.00;99.90
22813;DHT22;11573;51.334;3.244;2023-06-10T04:55:59;24.00;99.90
22813;DHT22;11573;51.334;3.244;2023-06-10T04:58:26;24.30;99.90
22813;DHT22;11573;51.334;3.244;2023-06-10T05:00:53;24.20;99.90
22813;DHT22;11573;51.334;3.244;2023-06-10T05:03:20;24.40;99.90
22813;DHT22;11573;51.334;3.244;2023-06-10T05:05:47;24.40;99.90
22813;DHT22;11573;51.334;3.244;2023-06-10T05:08:14;24.70;99.90
22813;DHT22;11573;51.334;3.244;2023-06-10T05:10:41;25.10;99.90
22813;DHT22;11573;51.334;3.244;2023-06-10T05:13:08;25.50;99.90
22813;DHT22;11573;51.334;3.244;2023-06-10T05:15:35;25.50;99.90
22813;DHT22;11573;51.334;3.244;2023-06-10T05:18:02;25.60;99.90
22813;DHT22;11573;51.334;3.244;2023-06-10T05:20:29;25.90;99.90
22813;DHT22;11573;51.334;3.244;2023-06-10T05:22:56;26.00;99.90
22813;DHT22;11573;51.334;3.244;2023-06-10T05:25:26;25.90;99.90
22813;DHT22;11573;51.334;3.244;2023-06-10T05:27:54;26.30;99.90
22813;DHT22;11573;51.334;3.244;2023-06-10T05:30:21;26.40;99.90
22813;DHT22;11573;51.334;3.244;2023-06-10T05:32:48;26.60;99.90
22813;DHT22;11573;51.334;3.244;2023-06-10T05:35:15;26.70;99.90
22813;DHT22;11573;51.334;3.244;2023-06-10T05:37:42;27.10;99.90
22813;DHT22;11573;51.334;3.244;2023-06-10T05:40:11;27.50;99.90
22813;DHT22;11573;51.334;3.244;2023-06-10T05:42:38;27.20;99.90
22813;DHT22;11573;51.334;3.244;2023-06-10T05:45:06;27.10;99.90
22813;DHT22;11573;51.334;3.244;2023-06-10T05:47:34;26.70;99.90
22813;DHT22;11573;51.334;3.244;2023-06-10T05:50:01;27.00;99.90
22813;DHT22;11573;51.334;3.244;2023-06-10T05:52:29;27.20;99.90
22813;DHT22;11573;51.334;3.244;2023-06-10T05:54:56;27.50;99.90
22813;DHT22;11573;51.334;3.244;2023-06-10T05:57:23;27.80;99.90
22813;DHT22;11573;51.334;3.244;2023-06-10T05:59:50;27.50;99.90
22813;DHT22;11573;51.334;3.244;2023-06-10T06:02:17;27.00;99.90
22813;DHT22;11573;51.334;3.244;2023-06-10T06:04:44;26.60;99.90
22813;DHT22;11573;51.334;3.244;2023-06-10T06:07:11;25.80;99.90
22813;DHT22;11573;51.334;3.244;2023-06-10T06:09:38;25.10;99.90
22813;DHT22;11573;51.334;3.244;2023-06-10T06:12:06;24.40;99.90
22813;DHT22;11573;51.334;3.244;2023-06-10T06:14:37;24.20;99.90
22813;DHT22;11573;51.334;3.244;2023-06-10T06:17:06;24.00;99.90
22813;DHT22;11573;51.334;3.244;2023-06-10T06:19:33;23.80;99.90
22813;DHT22;11573;51.334;3.244;2023-06-10T06:22:00;23.80;99.90
22813;DHT22;11573;51.334;3.244;2023-06-10T06:24:27;23.50;99.90
22813;DHT22;11573;51.334;3.244;2023-06-10T06:26:56;23.50;99.90
22813;DHT22;11573;51.334;3.244;2023-06-10T06:29:23;23.60;99.90
22813;DHT22;11573;51.334;3.244;2023-06-10T06:31:50;23.60;99.90
22813;DHT22;11573;51.334;3.244;2023-06-10T06:34:17;23.60;99.90
22813;DHT22;11573;51.334;3.244;2023-06-10T06:36:44;23.60;99.90
22813;DHT22;11573;51.334;3.244;2023-06-10T06:39:11;23.70;99.90
22813;DHT22;11573;51.334;3.244;2023-06-10T06:41:38;23.80;99.90
22813;DHT22;11573;51.334;3.244;2023-06-10T06:44:05;23.80;99.90
22813;DHT22;11573;51.334;3.244;2023-06-10T06:46:37;23.90;99.90
22813;DHT22;11573;51.334;3.244;2023-06-10T06:49:04;23.90;99.90
22813;DHT22;11573;51.334;3.244;2023-06-10T06:51:31;23.80;99.90
22813;DHT22;11573;51.334;3.244;2023-06-10T06:53:58;24.00;99.90
22813;DHT22;11573;51.334;3.244;2023-06-10T06:56:25;24.10;99.90
22813;DHT22;11573;51.334;3.244;2023-06-10T06:58:54;24.20;99.90
22813;DHT22;11573;51.334;3.244;2023-06-10T07:01:24;24.30;99.90
22813;DHT22;11573;51.334;3.244;2023-06-10T07:03:51;24.30;99.90
22813;DHT22;11573;51.334;3.244;2023-06-10T07:06:18;24.30;99.90
22813;DHT22;11573;51.334;3.244;2023-06-10T07:08:45;24.40;99.90
22813;DHT22;11573;51.334;3.244;2023-06-10T07:11:12;24.50;99.90
22813;DHT22;11573;51.334;3.244;2023-06-10T07:13:39;24.40;99.90
22813;DHT22;11573;51.334;3.244;2023-06-10T07:16:06;24.40;99.90
22813;DHT22;11573;51.334;3.244;2023-06-10T07:18:33;24.60;99.90
22813;DHT22;11573;51.334;3.244;2023-06-10T07:21:00;24.60;99.90
22813;DHT22;11573;51.334;3.244;2023-06-10T07:23:27;24.60;99.90
22813;DHT22;11573;51.334;3.244;2023-06-10T07:25:54;24.80;99.90
22813;DHT22;11573;51.334;3.244;2023-06-10T07:28:21;24.90;99.90
22813;DHT22;11573;51.334;3.244;2023-06-10T07:30:48;25.00;99.90
22813;DHT22;11573;51.334;3.244;2023-06-10T07:33:15;25.10;99.90
22813;DHT22;11573;51.334;3.244;2023-06-10T07:35:42;25.30;99.90
22813;DHT22;11573;51.334;3.244;2023-06-10T07:38:10;25.30;99.90
22813;DHT22;11573;51.334;3.244;2023-06-10T07:40:37;25.40;99.90
22813;DHT22;11573;51.334;3.244;2023-06-10T07:43:04;25.50;99.90
22813;DHT22;11573;51.334;3.244;2023-06-10T07:45:31;25.60;99.90
22813;DHT22;11573;51.334;3.244;2023-06-10T07:47:58;25.80;99.90
22813;DHT22;11573;51.334;3.244;2023-06-10T07:50:25;25.80;99.90
22813;DHT22;11573;51.334;3.244;2023-06-10T07:52:52;25.80;99.90
22813;DHT22;11573;51.334;3.244;2023-06-10T07:55:19;25.90;99.90
22813;DHT22;11573;51.334;3.244;2023-06-10T07:57:46;26.00;99.90
22813;DHT22;11573;51.334;3.244;2023-06-10T08:00:13;26.10;99.90
22813;DHT22;11573;51.334;3.244;2023-06-10T08:02:40;26.10;99.90
22813;DHT22;11573;51.334;3.244;2023-06-10T08:05:07;26.10;99.90
22813;DHT22;11573;51.334;3.244;2023-06-10T08:07:35;26.20;99.90
22813;DHT22;11573;51.334;3.244;2023-06-10T08:10:03;26.40;99.90
22813;DHT22;11573;51.334;3.244;2023-06-10T08:12:31;26.30;99.90
22813;DHT22;11573;51.334;3.244;2023-06-10T08:14:58;26.50;99.90
22813;DHT22;11573;51.334;3.244;2023-06-10T08:17:25;26.50;99.90
22813;DHT22;11573;51.334;3.244;2023-06-10T08:19:53;26.70;99.90
22813;DHT22;11573;51.334;3.244;2023-06-10T08:22:20;26.90;99.90
22813;DHT22;11573;51.334;3.244;2023-06-10T08:24:47;27.00;99.90
22813;DHT22;11573;51.334;3.244;2023-06-10T08:27:15;27.10;99.90
22813;DHT22;11573;51.334;3.244;2023-06-10T08:29:42;27.20;99.90
22813;DHT22;11573;51.334;3.244;2023-06-10T08:32:09;27.20;99.90
22813;DHT22;11573;51.334;3.244;2023-06-10T08:34:36;27.20;99.90
22813;DHT22;11573;51.334;3.244;2023-06-10T08:37:04;27.20;99.90
22813;DHT22;11573;51.334;3.244;2023-06-10T08:39:31;27.00;99.90
22813;DHT22;11573;51.334;3.244;2023-06-10T08:44:57;27.20;99.90
22813;DHT22;11573;51.334;3.244;2023-06-10T08:47:30;27.30;99.90
22813;DHT22;11573;51.334;3.244;2023-06-10T08:50:04;27.10;99.90
22813;DHT22;11573;51.334;3.244;2023-06-10T08:52:36;27.10;99.90
22813;DHT22;11573;51.334;3.244;2023-06-10T08:55:19;27.30;99.90
22813;DHT22;11573;51.334;3.244;2023-06-10T08:57:49;27.50;99.90
22813;DHT22;11573;51.334;3.244;2023-06-10T09:00:16;27.50;99.90
22813;DHT22;11573;51.334;3.244;2023-06-10T09:02:44;27.70;99.90
22813;DHT22;11573;51.334;3.244;2023-06-10T09:05:12;27.70;99.90
22813;DHT22;11573;51.334;3.244;2023-06-10T09:07:40;27.80;99.90
22813;DHT22;11573;51.334;3.244;2023-06-10T09:10:07;27.70;99.90
22813;DHT22;11573;51.334;3.244;2023-06-10T09:12:35;27.90;99.90
22813;DHT22;11573;51.334;3.244;2023-06-10T09:15:06;27.90;99.90
22813;DHT22;11573;51.334;3.244;2023-06-10T09:17:33;28.10;99.90
22813;DHT22;11573;51.334;3.244;2023-06-10T09:20:00;28.20;99.90
22813;DHT22;11573;51.334;3.244;2023-06-10T09:22:29;28.30;99.90
22813;DHT22;11573;51.334;3.244;2023-06-10T09:25:07;28.60;99.90
22813;DHT22;11573;51.334;3.244;2023-06-10T09:28:04;28.70;99.90
22813;DHT22;11573;51.334;3.244;2023-06-10T09:30:33;28.70;99.90
22813;DHT22;11573;51.334;3.244;2023-06-10T09:33:02;28.70;99.90
22813;DHT22;11573;51.334;3.244;2023-06-10T09:35:30;28.70;99.90
22813;DHT22;11573;51.334;3.244;2023-06-10T09:37:59;28.90;99.90
22813;DHT22;11573;51.334;3.244;2023-06-10T09:40:27;29.10;99.90
22813;DHT22;11573;51.334;3.244;2023-06-10T09:42:59;28.90;99.90
22813;DHT22;11573;51.334;3.244;2023-06-10T09:45:30;29.00;99.90
22813;DHT22;11573;51.334;3.244;2023-06-10T09:48:00;29.00;99.90
22813;DHT22;11573;51.334;3.244;2023-06-10T09:50:28;29.00;99.90
22813;DHT22;11573;51.334;3.244;2023-06-10T09:52:59;29.30;99.90
22813;DHT22;11573;51.334;3.244;2023-06-10T09:55:27;29.50;99.90
22813;DHT22;11573;51.334;3.244;2023-06-10T09:57:54;29.50;99.90
22813;DHT22;11573;51.334;3.244;2023-06-10T10:00:22;29.30;99.90
22813;DHT22;11573;51.334;3.244;2023-06-10T10:02:52;29.20;99.90
22813;DHT22;11573;51.334;3.244;2023-06-10T10:05:21;29.20;99.90
22813;DHT22;11573;51.334;3.244;2023-06-10T10:07:49;29.20;99.90
22813;DHT22;11573;51.334;3.244;2023-06-10T10:10:21;29.00;99.90
22813;DHT22;11573;51.334;3.244;2023-06-10T10:12:53;29.00;99.90
22813;DHT22;11573;51.334;3.244;2023-06-10T10:15:24;28.90;99.90
22813;DHT22;11573;51.334;3.244;2023-06-10T10:18:00;28.80;99.90
22813;DHT22;11573;51.334;3.244;2023-06-10T10:20:33;29.00;99.90
22813;DHT22;11573;51.334;3.244;2023-06-10T10:23:03;29.40;99.90
22813;DHT22;11573;51.334;3.244;2023-06-10T10:25:41;29.50;99.90
22813;DHT22;11573;51.334;3.244;2023-06-10T10:28:13;29.70;99.90
22813;DHT22;11573;51.334;3.244;2023-06-10T10:30:53;29.90;99.90
22813;DHT22;11573;51.334;3.244;2023-06-10T10:33:40;30.00;99.90
22813;DHT22;11573;51.334;3.244;2023-06-10T10:36:08;30.00;99.90
22813;DHT22;11573;51.334;3.244;2023-06-10T10:38:36;30.00;99.90
22813;DHT22;11573;51.334;3.244;2023-06-10T10:41:04;29.70;99.90
22813;DHT22;11573;51.334;3.244;2023-06-10T10:43:33;29.80;99.90
22813;DHT22;11573;51.334;3.244;2023-06-10T10:46:12;29.90;99.90
22813;DHT22;11573;51.334;3.244;2023-06-10T10:48:40;29.90;99.90
22813;DHT22;11573;51.334;3.244;2023-06-10T10:51:10;29.60;99.90
22813;DHT22;11573;51.334;3.244;2023-06-10T10:53:38;29.70;99.90
22813;DHT22;11573;51.334;3.244;2023-06-10T10:56:07;29.80;99.90
22813;DHT22;11573;51.334;3.244;2023-06-10T10:58:37;29.80;99.90
22813;DHT22;11573;51.334;3.244;2023-06-10T11:01:13;29.90;99.90
22813;DHT22;11573;51.334;3.244;2023-06-10T11:03:46;29.80;99.90
22813;DHT22;11573;51.334;3.244;2023-06-10T11:06:15;29.80;99.90
22813;DHT22;11573;51.334;3.244;2023-06-10T11:11:18;29.70;99.90
22813;DHT22;11573;51.334;3.244;2023-06-10T11:14:07;29.80;99.90
22813;DHT22;11573;51.334;3.244;2023-06-10T11:16:43;30.20;99.90
22813;DHT22;11573;51.334;3.244;2023-06-10T11:19:10;30.20;99.90
22813;DHT22;11573;51.334;3.244;2023-06-10T11:22:02;30.20;99.90
22813;DHT22;11573;51.334;3.244;2023-06-10T11:24:30;30.50;99.90
22813;DHT22;11573;51.334;3.244;2023-06-10T11:27:17;30.70;99.90
22813;DHT22;11573;51.334;3.244;2023-06-10T11:32:34;30.90;99.90
22813;DHT22;11573;51.334;3.244;2023-06-10T11:35:06;31.10;99.90
22813;DHT22;11573;51.334;3.244;2023-06-10T11:37:34;31.10;99.90
22813;DHT22;11573;51.334;3.244;2023-06-10T11:40:02;31.10;99.90
22813;DHT22;11573;51.334;3.244;2023-06-10T11:42:29;31.20;99.90
22813;DHT22;11573;51.334;3.244;2023-06-10T11:44:56;31.20;99.90
22813;DHT22;11573;51.334;3.244;2023-06-10T11:47:23;31.30;99.90
22813;DHT22;11573;51.334;3.244;2023-06-10T11:49:56;31.10;99.90
22813;DHT22;11573;51.334;3.244;2023-06-10T11:52:28;31.10;99.90
22813;DHT22;11573;51.334;3.244;2023-06-10T11:54:55;31.40;99.90
22813;DHT22;11573;51.334;3.244;2023-06-10T11:57:23;31.40;99.90
22813;DHT22;11573;51.334;3.244;2023-06-10T11:59:50;31.50;99.90
22813;DHT22;11573;51.334;3.244;2023-06-10T12:02:17;31.40;99.90
22813;DHT22;11573;51.334;3.244;2023-06-10T12:04:46;31.20;99.90
22813;DHT22;11573;51.334;3.244;2023-06-10T12:07:19;31.00;99.90
22813;DHT22;11573;51.334;3.244;2023-06-10T12:09:47;31.20;99.90
22813;DHT22;11573;51.334;3.244;2023-06-10T12:12:25;31.40;99.90
22813;DHT22;11573;51.334;3.244;2023-06-10T12:14:57;31.30;99.90
22813;DHT22;11573;51.334;3.244;2023-06-10T12:19:59;31.80;99.90
22813;DHT22;11573;51.334;3.244;2023-06-10T12:22:26;31.70;99.90
22813;DHT22;11573;51.334;3.244;2023-06-10T12:24:58;31.60;99.80
22813;DHT22;11573;51.334;3.244;2023-06-10T12:27:30;31.70;99.60
22813;DHT22;11573;51.334;3.244;2023-06-10T12:29:58;31.20;99.90
22813;DHT22;11573;51.334;3.244;2023-06-10T12:32:43;31.10;99.80
22813;DHT22;11573;51.334;3.244;2023-06-10T12:35:15;30.90;99.90
22813;DHT22;11573;51.334;3.244;2023-06-10T12:40:46;30.80;99.10
22813;DHT22;11573;51.334;3.244;2023-06-10T12:43:14;30.90;99.60
22813;DHT22;11573;51.334;3.244;2023-06-10T12:45:45;30.80;99.90
22813;DHT22;11573;51.334;3.244;2023-06-10T12:48:19;30.70;99.50
22813;DHT22;11573;51.334;3.244;2023-06-10T12:50:54;30.30;99.90
22813;DHT22;11573;51.334;3.244;2023-06-10T12:53:22;30.10;99.90
22813;DHT22;11573;51.334;3.244;2023-06-10T12:55:53;30.60;99.30
22813;DHT22;11573;51.334;3.244;2023-06-10T12:58:21;31.10;98.50
22813;DHT22;11573;51.334;3.244;2023-06-10T13:00:49;31.30;97.60
22813;DHT22;11573;51.334;3.244;2023-06-10T13:03:19;31.00;97.20
22813;DHT22;11573;51.334;3.244;2023-06-10T13:05:46;30.90;98.20
22813;DHT22;11573;51.334;3.244;2023-06-10T13:08:13;31.10;99.10
22813;DHT22;11573;51.334;3.244;2023-06-10T13:10:40;31.50;97.50
22813;DHT22;11573;51.334;3.244;2023-06-10T13:13:07;32.10;98.00
22813;DHT22;11573;51.334;3.244;2023-06-10T13:15:37;32.70;94.60
22813;DHT22;11573;51.334;3.244;2023-06-10T13:18:09;32.40;94.50
22813;DHT22;11573;51.334;3.244;2023-06-10T13:20:36;32.40;95.00
22813;DHT22;11573;51.334;3.244;2023-06-10T13:23:03;32.80;92.90
22813;DHT22;11573;51.334;3.244;2023-06-10T13:25:30;32.80;91.30
22813;DHT22;11573;51.334;3.244;2023-06-10T13:27:57;33.00;90.80
22813;DHT22;11573;51.334;3.244;2023-06-10T13:30:24;33.20;91.50
22813;DHT22;11573;51.334;3.244;2023-06-10T13:32:51;33.60;89.80
22813;DHT22;11573;51.334;3.244;2023-06-10T13:35:18;33.60;87.40
22813;DHT22;11573;51.334;3.244;2023-06-10T13:37:45;33.40;84.00
22813;DHT22;11573;51.334;3.244;2023-06-10T13:40:12;33.40;85.60
22813;DHT22;11573;51.334;3.244;2023-06-10T13:42:39;33.30;79.90
22813;DHT22;11573;51.334;3.244;2023-06-10T13:45:07;33.40;81.00
22813;DHT22;11573;51.334;3.244;2023-06-10T13:47:35;33.60;81.00
22813;DHT22;11573;51.334;3.244;2023-06-10T13:50:02;33.90;81.90
22813;DHT22;11573;51.334;3.244;2023-06-10T13:52:29;33.40;78.20
22813;DHT22;11573;51.334;3.244;2023-06-10T13:54:56;33.40;82.50
22813;DHT22;11573;51.334;3.244;2023-06-10T13:57:23;33.60;75.30
22813;DHT22;11573;51.334;3.244;2023-06-10T13:59:50;33.70;75.50
22813;DHT22;11573;51.334;3.244;2023-06-10T14:02:17;33.60;74.80
22813;DHT22;11573;51.334;3.244;2023-06-10T14:04:44;33.30;73.20
22813;DHT22;11573;51.334;3.244;2023-06-10T14:07:11;33.30;82.60
22813;DHT22;11573;51.334;3.244;2023-06-10T14:09:38;33.70;84.00
22813;DHT22;11573;51.334;3.244;2023-06-10T14:12:05;33.70;75.00
22813;DHT22;11573;51.334;3.244;2023-06-10T14:14:32;33.10;76.60
22813;DHT22;11573;51.334;3.244;2023-06-10T14:17:00;32.70;78.00
22813;DHT22;11573;51.334;3.244;2023-06-10T14:19:27;32.70;87.60
22813;DHT22;11573;51.334;3.244;2023-06-10T14:21:54;32.10;90.40
22813;DHT22;11573;51.334;3.244;2023-06-10T14:24:22;31.50;92.40
22813;DHT22;11573;51.334;3.244;2023-06-10T14:26:49;31.20;91.50
22813;DHT22;11573;51.334;3.244;2023-06-10T14:29:16;30.80;95.00
22813;DHT22;11573;51.334;3.244;2023-06-10T14:31:45;30.90;96.20
22813;DHT22;11573;51.334;3.244;2023-06-10T14:34:12;30.70;98.30
22813;DHT22;11573;51.334;3.244;2023-06-10T14:36:39;30.50;98.60
22813;DHT22;11573;51.334;3.244;2023-06-10T14:39:06;29.90;99.60
22813;DHT22;11573;51.334;3.244;2023-06-10T14:41:33;29.70;99.90
22813;DHT22;11573;51.334;3.244;2023-06-10T14:44:00;29.60;99.90
22813;DHT22;11573;51.334;3.244;2023-06-10T14:46:27;30.00;99.90
22813;DHT22;11573;51.334;3.244;2023-06-10T14:48:54;29.80;99.90
22813;DHT22;11573;51.334;3.244;2023-06-10T14:51:21;29.30;99.90
22813;DHT22;11573;51.334;3.244;2023-06-10T14:53:48;29.00;99.90
22813;DHT22;11573;51.334;3.244;2023-06-10T14:56:15;28.90;99.90
22813;DHT22;11573;51.334;3.244;2023-06-10T14:58:42;28.90;99.90
22813;DHT22;11573;51.334;3.244;2023-06-10T15:01:09;28.70;99.90
22813;DHT22;11573;51.334;3.244;2023-06-10T15:03:36;28.00;99.90
22813;DHT22;11573;51.334;3.244;2023-06-10T15:06:03;27.30;99.90
22813;DHT22;11573;51.334;3.244;2023-06-10T15:08:30;27.00;99.90
22813;DHT22;11573;51.334;3.244;2023-06-10T15:10:57;26.80;99.90
22813;DHT22;11573;51.334;3.244;2023-06-10T15:13:24;26.70;99.90
22813;DHT22;11573;51.334;3.244;2023-06-10T15:15:51;26.80;99.90
22813;DHT22;11573;51.334;3.244;2023-06-10T15:18:19;27.00;99.90
22813;DHT22;11573;51.334;3.244;2023-06-10T15:20:46;27.00;99.90
22813;DHT22;11573;51.334;3.244;2023-06-10T15:23:13;26.60;99.90
22813;DHT22;11573;51.334;3.244;2023-06-10T15:25:39;26.20;99.90
22813;DHT22;11573;51.334;3.244;2023-06-10T15:28:07;25.90;99.90
22813;DHT22;11573;51.334;3.244;2023-06-10T15:30:34;25.70;99.90
22813;DHT22;11573;51.334;3.244;2023-06-10T15:33:03;25.50;99.90
22813;DHT22;11573;51.334;3.244;2023-06-10T15:35:33;25.10;99.90
22813;DHT22;11573;51.334;3.244;2023-06-10T15:38:00;25.50;99.90
22813;DHT22;11573;51.334;3.244;2023-06-10T15:40:28;25.90;99.90
22813;DHT22;11573;51.334;3.244;2023-06-10T15:42:55;25.60;99.90
22813;DHT22;11573;51.334;3.244;2023-06-10T15:45:22;26.00;99.90
22813;DHT22;11573;51.334;3.244;2023-06-10T15:47:49;26.30;99.90
22813;DHT22;11573;51.334;3.244;2023-06-10T15:50:16;26.50;99.90
22813;DHT22;11573;51.334;3.244;2023-06-10T15:52:43;26.70;99.90